sensor_id;sensor_type;location;lat;lon;timestamp;P1;durP1;ratioP1;P2;durP2;ratioP2
15194;SDS011;7698;42.478;23.756;2022-12-18T00:00:13;20.15;;;16.90;;
15194;SDS011;7698;42.478;23.756;2022-12-18T00:02:40;19.42;;;15.75;;
15194;SDS011;7698;42.478;23.756;2022-12-18T00:05:08;19.50;;;16.13;;
15194;SDS011;7698;42.478;23.756;2022-12-18T00:07:35;17.02;;;15.23;;
15194;SDS011;7698;42.478;23.756;2022-12-18T00:10:03;16.60;;;14.73;;
15194;SDS011;7698;42.478;23.756;2022-12-18T00:12:30;17.70;;;15.82;;
15194;SDS011;7698;42.478;23.756;2022-12-18T00:14:57;16.10;;;14.40;;
15194;SDS011;7698;42.478;23.756;2022-12-18T00:17:25;14.98;;;13.52;;
15194;SDS011;7698;42.478;23.756;2022-12-18T00:19:52;14.27;;;12.77;;
15194;SDS011;7698;42.478;23.756;2022-12-18T00:22:19;16.05;;;14.50;;
15194;SDS011;7698;42.478;23.756;2022-12-18T00:24:46;15.23;;;13.05;;
15194;SDS011;7698;42.478;23.756;2022-12-18T00:27:13;14.45;;;13.05;;
15194;SDS011;7698;42.478;23.756;2022-12-18T00:29:40;14.18;;;12.77;;
15194;SDS011;7698;42.478;23.756;2022-12-18T00:32:07;12.32;;;11.13;;
15194;SDS011;7698;42.478;23.756;2022-12-18T00:34:35;12.05;;;10.80;;
15194;SDS011;7698;42.478;23.756;2022-12-18T00:37:02;13.10;;;11.07;;
15194;SDS011;7698;42.478;23.756;2022-12-18T00:39:28;10.98;;;9.77;;
15194;SDS011;7698;42.478;23.756;2022-12-18T00:41:55;10.05;;;9.13;;
15194;SDS011;7698;42.478;23.756;2022-12-18T00:44:39;8.73;;;8.02;;
15194;SDS011;7698;42.478;23.756;2022-12-18T00:47:06;9.60;;;8.57;;
15194;SDS011;7698;42.478;23.756;2022-12-18T00:49:34;9.13;;;8.23;;
15194;SDS011;7698;42.478;23.756;2022-12-18T00:52:01;8.93;;;8.02;;
15194;SDS011;7698;42.478;23.756;2022-12-18T00:54:28;8.70;;;7.90;;
15194;SDS011;7698;42.478;23.756;2022-12-18T00:56:55;9.68;;;8.77;;
15194;SDS011;7698;42.478;23.756;2022-12-18T00:59:21;8.70;;;7.90;;
15194;SDS011;7698;42.478;23.756;2022-12-18T01:01:48;8.48;;;7.70;;
15194;SDS011;7698;42.478;23.756;2022-12-18T01:04:15;10.30;;;9.32;;
15194;SDS011;7698;42.478;23.756;2022-12-18T01:06:43;9.35;;;8.43;;
15194;SDS011;7698;42.478;23.756;2022-12-18T01:09:10;8.95;;;8.15;;
15194;SDS011;7698;42.478;23.756;2022-12-18T01:11:37;9.02;;;8.10;;
15194;SDS011;7698;42.478;23.756;2022-12-18T01:14:03;8.50;;;7.63;;
15194;SDS011;7698;42.478;23.756;2022-12-18T01:16:30;9.93;;;8.27;;
15194;SDS011;7698;42.478;23.756;2022-12-18T01:18:57;9.35;;;8.48;;
15194;SDS011;7698;42.478;23.756;2022-12-18T01:21:24;9.07;;;8.18;;
15194;SDS011;7698;42.478;23.756;2022-12-18T01:23:55;8.30;;;7.53;;
15194;SDS011;7698;42.478;23.756;2022-12-18T01:26:22;7.22;;;6.63;;
15194;SDS011;7698;42.478;23.756;2022-12-18T01:28:50;8.07;;;7.28;;
15194;SDS011;7698;42.478;23.756;2022-12-18T01:31:18;8.32;;;7.07;;
15194;SDS011;7698;42.478;23.756;2022-12-18T01:33:46;9.07;;;7.38;;
15194;SDS011;7698;42.478;23.756;2022-12-18T01:36:16;7.18;;;6.47;;
15194;SDS011;7698;42.478;23.756;2022-12-18T01:38:45;6.40;;;5.82;;
15194;SDS011;7698;42.478;23.756;2022-12-18T01:41:14;6.90;;;6.18;;
15194;SDS011;7698;42.478;23.756;2022-12-18T01:43:42;7.10;;;6.28;;
15194;SDS011;7698;42.478;23.756;2022-12-18T01:46:10;6.53;;;5.60;;
15194;SDS011;7698;42.478;23.756;2022-12-18T01:48:37;6.47;;;5.88;;
15194;SDS011;7698;42.478;23.756;2022-12-18T01:51:06;7.25;;;6.55;;
15194;SDS011;7698;42.478;23.756;2022-12-18T01:53:36;7.50;;;6.78;;
15194;SDS011;7698;42.478;23.756;2022-12-18T01:56:05;6.40;;;5.80;;
15194;SDS011;7698;42.478;23.756;2022-12-18T01:58:35;6.82;;;6.22;;
15194;SDS011;7698;42.478;23.756;2022-12-18T02:01:09;6.55;;;6.05;;
15194;SDS011;7698;42.478;23.756;2022-12-18T02:03:36;6.85;;;5.95;;
15194;SDS011;7698;42.478;23.756;2022-12-18T02:06:06;6.72;;;6.10;;
15194;SDS011;7698;42.478;23.756;2022-12-18T02:08:37;6.68;;;6.07;;
15194;SDS011;7698;42.478;23.756;2022-12-18T02:11:13;7.63;;;6.93;;
15194;SDS011;7698;42.478;23.756;2022-12-18T02:13:53;7.22;;;6.45;;
15194;SDS011;7698;42.478;23.756;2022-12-18T02:16:29;7.72;;;6.93;;
15194;SDS011;7698;42.478;23.756;2022-12-18T02:19:06;7.07;;;6.47;;
15194;SDS011;7698;42.478;23.756;2022-12-18T02:21:44;6.53;;;5.93;;
15194;SDS011;7698;42.478;23.756;2022-12-18T02:24:18;6.68;;;6.05;;
15194;SDS011;7698;42.478;23.756;2022-12-18T02:26:57;7.00;;;6.25;;
15194;SDS011;7698;42.478;23.756;2022-12-18T02:29:28;7.40;;;6.65;;
15194;SDS011;7698;42.478;23.756;2022-12-18T02:31:58;6.35;;;5.75;;
15194;SDS011;7698;42.478;23.756;2022-12-18T02:34:27;7.18;;;6.47;;
15194;SDS011;7698;42.478;23.756;2022-12-18T02:36:57;8.30;;;6.65;;
15194;SDS011;7698;42.478;23.756;2022-12-18T02:39:26;7.45;;;6.70;;
15194;SDS011;7698;42.478;23.756;2022-12-18T02:41:57;6.97;;;6.30;;
15194;SDS011;7698;42.478;23.756;2022-12-18T02:44:27;6.05;;;5.50;;
15194;SDS011;7698;42.478;23.756;2022-12-18T02:46:54;7.03;;;6.33;;
15194;SDS011;7698;42.478;23.756;2022-12-18T02:49:23;6.95;;;5.95;;
15194;SDS011;7698;42.478;23.756;2022-12-18T02:52:01;7.10;;;6.43;;
15194;SDS011;7698;42.478;23.756;2022-12-18T02:54:35;6.88;;;6.28;;
15194;SDS011;7698;42.478;23.756;2022-12-18T02:57:13;6.07;;;5.47;;
15194;SDS011;7698;42.478;23.756;2022-12-18T02:59:46;5.80;;;5.20;;
15194;SDS011;7698;42.478;23.756;2022-12-18T03:02:21;7.18;;;6.47;;
15194;SDS011;7698;42.478;23.756;2022-12-18T03:04:54;8.00;;;5.82;;
15194;SDS011;7698;42.478;23.756;2022-12-18T03:07:26;5.72;;;5.15;;
15194;SDS011;7698;42.478;23.756;2022-12-18T03:09:59;6.22;;;5.63;;
15194;SDS011;7698;42.478;23.756;2022-12-18T03:12:30;6.28;;;5.63;;
15194;SDS011;7698;42.478;23.756;2022-12-18T03:15:01;5.63;;;5.03;;
15194;SDS011;7698;42.478;23.756;2022-12-18T03:17:32;5.43;;;4.93;;
15194;SDS011;7698;42.478;23.756;2022-12-18T03:20:02;6.57;;;5.35;;
15194;SDS011;7698;42.478;23.756;2022-12-18T03:22:32;6.93;;;5.57;;
15194;SDS011;7698;42.478;23.756;2022-12-18T03:25:00;5.63;;;5.05;;
15194;SDS011;7698;42.478;23.756;2022-12-18T03:27:32;5.70;;;5.00;;
15194;SDS011;7698;42.478;23.756;2022-12-18T03:30:03;5.75;;;4.70;;
15194;SDS011;7698;42.478;23.756;2022-12-18T03:32:33;6.73;;;6.03;;
15194;SDS011;7698;42.478;23.756;2022-12-18T03:35:05;5.53;;;5.00;;
15194;SDS011;7698;42.478;23.756;2022-12-18T03:37:34;5.25;;;4.72;;
15194;SDS011;7698;42.478;23.756;2022-12-18T03:40:01;5.13;;;4.63;;
15194;SDS011;7698;42.478;23.756;2022-12-18T03:42:29;5.60;;;5.10;;
15194;SDS011;7698;42.478;23.756;2022-12-18T03:45:06;5.20;;;4.60;;
15194;SDS011;7698;42.478;23.756;2022-12-18T03:47:39;5.93;;;5.32;;
15194;SDS011;7698;42.478;23.756;2022-12-18T03:50:11;5.78;;;5.25;;
15194;SDS011;7698;42.478;23.756;2022-12-18T03:52:44;6.93;;;5.37;;
15194;SDS011;7698;42.478;23.756;2022-12-18T03:55:16;5.15;;;4.65;;
15194;SDS011;7698;42.478;23.756;2022-12-18T03:57:46;6.47;;;5.87;;
15194;SDS011;7698;42.478;23.756;2022-12-18T04:00:15;7.38;;;5.40;;
15194;SDS011;7698;42.478;23.756;2022-12-18T04:02:45;5.50;;;5.00;;
15194;SDS011;7698;42.478;23.756;2022-12-18T04:05:17;4.78;;;4.32;;
15194;SDS011;7698;42.478;23.756;2022-12-18T04:07:45;4.90;;;4.43;;
15194;SDS011;7698;42.478;23.756;2022-12-18T04:10:13;6.05;;;5.40;;
15194;SDS011;7698;42.478;23.756;2022-12-18T04:12:42;5.97;;;5.40;;
15194;SDS011;7698;42.478;23.756;2022-12-18T04:15:11;6.45;;;5.85;;
15194;SDS011;7698;42.478;23.756;2022-12-18T04:17:38;6.18;;;5.50;;
15194;SDS011;7698;42.478;23.756;2022-12-18T04:20:13;6.27;;;5.67;;
15194;SDS011;7698;42.478;23.756;2022-12-18T04:22:39;6.90;;;5.53;;
15194;SDS011;7698;42.478;23.756;2022-12-18T04:25:06;5.30;;;4.80;;
15194;SDS011;7698;42.478;23.756;2022-12-18T04:27:34;5.28;;;4.78;;
15194;SDS011;7698;42.478;23.756;2022-12-18T04:30:01;6.10;;;5.50;;
15194;SDS011;7698;42.478;23.756;2022-12-18T04:32:29;5.93;;;5.43;;
15194;SDS011;7698;42.478;23.756;2022-12-18T04:34:56;6.47;;;5.88;;
15194;SDS011;7698;42.478;23.756;2022-12-18T04:37:22;5.97;;;5.45;;
15194;SDS011;7698;42.478;23.756;2022-12-18T04:39:49;7.32;;;5.72;;
15194;SDS011;7698;42.478;23.756;2022-12-18T04:42:16;7.28;;;6.60;;
15194;SDS011;7698;42.478;23.756;2022-12-18T04:44:43;7.43;;;6.40;;
15194;SDS011;7698;42.478;23.756;2022-12-18T04:47:09;8.05;;;6.75;;
15194;SDS011;7698;42.478;23.756;2022-12-18T04:49:37;8.47;;;7.57;;
15194;SDS011;7698;42.478;23.756;2022-12-18T04:52:04;9.10;;;7.30;;
15194;SDS011;7698;42.478;23.756;2022-12-18T04:54:34;7.30;;;6.47;;
15194;SDS011;7698;42.478;23.756;2022-12-18T04:57:00;7.53;;;6.00;;
15194;SDS011;7698;42.478;23.756;2022-12-18T04:59:27;7.60;;;6.38;;
15194;SDS011;7698;42.478;23.756;2022-12-18T05:01:54;6.70;;;6.03;;
15194;SDS011;7698;42.478;23.756;2022-12-18T05:04:21;6.38;;;5.78;;
15194;SDS011;7698;42.478;23.756;2022-12-18T05:06:49;6.60;;;6.00;;
15194;SDS011;7698;42.478;23.756;2022-12-18T05:09:16;7.18;;;6.47;;
15194;SDS011;7698;42.478;23.756;2022-12-18T05:11:43;7.85;;;7.15;;
15194;SDS011;7698;42.478;23.756;2022-12-18T05:14:10;7.20;;;6.57;;
15194;SDS011;7698;42.478;23.756;2022-12-18T05:16:36;7.80;;;7.10;;
15194;SDS011;7698;42.478;23.756;2022-12-18T05:19:03;7.25;;;6.55;;
15194;SDS011;7698;42.478;23.756;2022-12-18T05:21:30;8.68;;;7.78;;
15194;SDS011;7698;42.478;23.756;2022-12-18T05:23:58;8.38;;;7.57;;
15194;SDS011;7698;42.478;23.756;2022-12-18T05:26:25;8.05;;;7.25;;
15194;SDS011;7698;42.478;23.756;2022-12-18T05:28:52;8.02;;;7.22;;
15194;SDS011;7698;42.478;23.756;2022-12-18T05:31:19;11.23;;;9.50;;
15194;SDS011;7698;42.478;23.756;2022-12-18T05:33:45;8.20;;;7.40;;
15194;SDS011;7698;42.478;23.756;2022-12-18T05:36:12;10.20;;;7.68;;
15194;SDS011;7698;42.478;23.756;2022-12-18T05:38:39;9.67;;;8.03;;
15194;SDS011;7698;42.478;23.756;2022-12-18T05:41:08;8.25;;;6.85;;
15194;SDS011;7698;42.478;23.756;2022-12-18T05:43:35;8.93;;;8.02;;
15194;SDS011;7698;42.478;23.756;2022-12-18T05:46:04;8.00;;;7.20;;
15194;SDS011;7698;42.478;23.756;2022-12-18T05:48:31;8.85;;;7.95;;
15194;SDS011;7698;42.478;23.756;2022-12-18T05:51:03;9.10;;;8.20;;
15194;SDS011;7698;42.478;23.756;2022-12-18T05:53:31;8.50;;;7.70;;
15194;SDS011;7698;42.478;23.756;2022-12-18T05:55:59;9.18;;;8.27;;
15194;SDS011;7698;42.478;23.756;2022-12-18T05:58:29;9.25;;;8.23;;
15194;SDS011;7698;42.478;23.756;2022-12-18T06:00:56;9.43;;;8.45;;
15194;SDS011;7698;42.478;23.756;2022-12-18T06:03:24;9.35;;;8.35;;
15194;SDS011;7698;42.478;23.756;2022-12-18T06:05:51;9.43;;;8.45;;
15194;SDS011;7698;42.478;23.756;2022-12-18T06:08:18;10.27;;;9.27;;
15194;SDS011;7698;42.478;23.756;2022-12-18T06:10:49;9.83;;;8.27;;
15194;SDS011;7698;42.478;23.756;2022-12-18T06:13:17;8.43;;;7.60;;
15194;SDS011;7698;42.478;23.756;2022-12-18T06:15:46;10.02;;;8.90;;
15194;SDS011;7698;42.478;23.756;2022-12-18T06:18:13;10.43;;;9.02;;
15194;SDS011;7698;42.478;23.756;2022-12-18T06:20:39;9.70;;;8.73;;
15194;SDS011;7698;42.478;23.756;2022-12-18T06:23:07;10.40;;;9.13;;
15194;SDS011;7698;42.478;23.756;2022-12-18T06:25:36;8.90;;;8.00;;
15194;SDS011;7698;42.478;23.756;2022-12-18T06:28:04;9.10;;;8.13;;
15194;SDS011;7698;42.478;23.756;2022-12-18T06:30:32;10.27;;;9.03;;
15194;SDS011;7698;42.478;23.756;2022-12-18T06:33:00;11.40;;;10.10;;
15194;SDS011;7698;42.478;23.756;2022-12-18T06:35:27;12.40;;;10.13;;
15194;SDS011;7698;42.478;23.756;2022-12-18T06:37:54;10.65;;;9.40;;
15194;SDS011;7698;42.478;23.756;2022-12-18T06:40:20;9.60;;;8.68;;
15194;SDS011;7698;42.478;23.756;2022-12-18T06:42:47;10.98;;;9.82;;
15194;SDS011;7698;42.478;23.756;2022-12-18T06:45:14;9.40;;;8.40;;
15194;SDS011;7698;42.478;23.756;2022-12-18T06:47:42;9.73;;;8.73;;
15194;SDS011;7698;42.478;23.756;2022-12-18T06:50:10;11.02;;;9.93;;
15194;SDS011;7698;42.478;23.756;2022-12-18T06:52:38;9.80;;;8.77;;
15194;SDS011;7698;42.478;23.756;2022-12-18T06:55:05;10.18;;;8.90;;
15194;SDS011;7698;42.478;23.756;2022-12-18T07:04:17;9.15;;;8.15;;
15194;SDS011;7698;42.478;23.756;2022-12-18T07:06:45;10.13;;;9.00;;
15194;SDS011;7698;42.478;23.756;2022-12-18T07:09:12;10.77;;;9.68;;
15194;SDS011;7698;42.478;23.756;2022-12-18T07:11:39;10.30;;;9.23;;
15194;SDS011;7698;42.478;23.756;2022-12-18T07:14:05;10.03;;;9.03;;
15194;SDS011;7698;42.478;23.756;2022-12-18T07:16:32;8.88;;;7.97;;
15194;SDS011;7698;42.478;23.756;2022-12-18T07:18:59;12.68;;;10.65;;
15194;SDS011;7698;42.478;23.756;2022-12-18T07:21:26;9.88;;;8.80;;
15194;SDS011;7698;42.478;23.756;2022-12-18T07:23:54;11.05;;;8.50;;
15194;SDS011;7698;42.478;23.756;2022-12-18T07:26:21;11.07;;;9.87;;
15194;SDS011;7698;42.478;23.756;2022-12-18T07:28:49;12.77;;;10.50;;
15194;SDS011;7698;42.478;23.756;2022-12-18T07:31:17;11.13;;;9.48;;
15194;SDS011;7698;42.478;23.756;2022-12-18T07:33:45;10.73;;;9.63;;
15194;SDS011;7698;42.478;23.756;2022-12-18T07:36:13;11.50;;;10.30;;
15194;SDS011;7698;42.478;23.756;2022-12-18T07:38:40;10.65;;;9.55;;
15194;SDS011;7698;42.478;23.756;2022-12-18T07:41:09;10.80;;;9.70;;
15194;SDS011;7698;42.478;23.756;2022-12-18T07:43:37;9.27;;;8.38;;
15194;SDS011;7698;42.478;23.756;2022-12-18T07:46:04;11.82;;;10.20;;
15194;SDS011;7698;42.478;23.756;2022-12-18T07:48:31;12.68;;;11.30;;
15194;SDS011;7698;42.478;23.756;2022-12-18T07:50:58;11.80;;;10.15;;
15194;SDS011;7698;42.478;23.756;2022-12-18T07:53:25;10.80;;;9.70;;
15194;SDS011;7698;42.478;23.756;2022-12-18T07:55:54;9.85;;;8.85;;
15194;SDS011;7698;42.478;23.756;2022-12-18T07:58:23;10.95;;;9.85;;
15194;SDS011;7698;42.478;23.756;2022-12-18T08:00:50;10.18;;;9.18;;
15194;SDS011;7698;42.478;23.756;2022-12-18T08:03:18;12.63;;;11.32;;
15194;SDS011;7698;42.478;23.756;2022-12-18T08:05:45;11.95;;;10.07;;
15194;SDS011;7698;42.478;23.756;2022-12-18T08:08:12;10.88;;;9.77;;
15194;SDS011;7698;42.478;23.756;2022-12-18T08:10:39;11.55;;;10.23;;
15194;SDS011;7698;42.478;23.756;2022-12-18T08:13:05;15.68;;;13.90;;
15194;SDS011;7698;42.478;23.756;2022-12-18T08:15:34;16.00;;;14.30;;
15194;SDS011;7698;42.478;23.756;2022-12-18T08:18:00;11.68;;;10.48;;
15194;SDS011;7698;42.478;23.756;2022-12-18T08:20:27;13.83;;;11.00;;
15194;SDS011;7698;42.478;23.756;2022-12-18T08:22:54;12.27;;;11.00;;
15194;SDS011;7698;42.478;23.756;2022-12-18T08:25:23;11.90;;;10.73;;
15194;SDS011;7698;42.478;23.756;2022-12-18T08:27:49;13.27;;;11.90;;
15194;SDS011;7698;42.478;23.756;2022-12-18T08:30:16;14.43;;;12.90;;
15194;SDS011;7698;42.478;23.756;2022-12-18T08:32:45;14.30;;;12.90;;
15194;SDS011;7698;42.478;23.756;2022-12-18T08:35:12;14.93;;;13.43;;
15194;SDS011;7698;42.478;23.756;2022-12-18T08:37:39;13.98;;;11.20;;
15194;SDS011;7698;42.478;23.756;2022-12-18T08:40:06;13.80;;;12.37;;
15194;SDS011;7698;42.478;23.756;2022-12-18T08:42:34;13.25;;;11.93;;
15194;SDS011;7698;42.478;23.756;2022-12-18T08:45:18;14.50;;;12.88;;
15194;SDS011;7698;42.478;23.756;2022-12-18T08:47:46;15.82;;;14.13;;
15194;SDS011;7698;42.478;23.756;2022-12-18T08:50:13;14.23;;;12.73;;
15194;SDS011;7698;42.478;23.756;2022-12-18T08:52:40;14.73;;;12.73;;
15194;SDS011;7698;42.478;23.756;2022-12-18T08:55:07;13.55;;;12.10;;
15194;SDS011;7698;42.478;23.756;2022-12-18T08:57:35;14.88;;;12.95;;
15194;SDS011;7698;42.478;23.756;2022-12-18T09:00:02;17.88;;;15.98;;
15194;SDS011;7698;42.478;23.756;2022-12-18T09:02:30;16.75;;;14.98;;
15194;SDS011;7698;42.478;23.756;2022-12-18T09:04:58;16.35;;;13.75;;
15194;SDS011;7698;42.478;23.756;2022-12-18T09:07:25;15.43;;;12.75;;
15194;SDS011;7698;42.478;23.756;2022-12-18T09:09:52;17.90;;;15.15;;
15194;SDS011;7698;42.478;23.756;2022-12-18T09:12:19;14.35;;;12.85;;
15194;SDS011;7698;42.478;23.756;2022-12-18T09:14:46;12.82;;;11.50;;
15194;SDS011;7698;42.478;23.756;2022-12-18T09:17:13;14.90;;;13.30;;
15194;SDS011;7698;42.478;23.756;2022-12-18T09:19:40;17.85;;;15.05;;
15194;SDS011;7698;42.478;23.756;2022-12-18T09:22:08;14.98;;;13.18;;
15194;SDS011;7698;42.478;23.756;2022-12-18T09:24:35;15.35;;;12.10;;
15194;SDS011;7698;42.478;23.756;2022-12-18T09:27:02;14.35;;;12.70;;
15194;SDS011;7698;42.478;23.756;2022-12-18T09:29:29;12.13;;;10.85;;
15194;SDS011;7698;42.478;23.756;2022-12-18T09:31:56;14.63;;;13.05;;
15194;SDS011;7698;42.478;23.756;2022-12-18T09:34:23;14.23;;;12.73;;
15194;SDS011;7698;42.478;23.756;2022-12-18T09:36:50;16.10;;;13.73;;
15194;SDS011;7698;42.478;23.756;2022-12-18T09:39:18;16.60;;;13.07;;
15194;SDS011;7698;42.478;23.756;2022-12-18T09:41:46;12.88;;;11.32;;
15194;SDS011;7698;42.478;23.756;2022-12-18T09:44:20;13.02;;;11.07;;
15194;SDS011;7698;42.478;23.756;2022-12-18T09:46:53;13.05;;;11.35;;
15194;SDS011;7698;42.478;23.756;2022-12-18T09:49:28;13.88;;;12.18;;
15194;SDS011;7698;42.478;23.756;2022-12-18T09:51:59;13.75;;;12.25;;
15194;SDS011;7698;42.478;23.756;2022-12-18T09:54:33;13.43;;;12.13;;
15194;SDS011;7698;42.478;23.756;2022-12-18T09:57:13;15.48;;;13.60;;
15194;SDS011;7698;42.478;23.756;2022-12-18T09:59:41;16.15;;;14.45;;
15194;SDS011;7698;42.478;23.756;2022-12-18T10:02:16;17.67;;;15.88;;
15194;SDS011;7698;42.478;23.756;2022-12-18T10:04:48;16.17;;;14.48;;
15194;SDS011;7698;42.478;23.756;2022-12-18T10:07:22;14.18;;;12.68;;
15194;SDS011;7698;42.478;23.756;2022-12-18T10:09:58;15.30;;;13.70;;
15194;SDS011;7698;42.478;23.756;2022-12-18T10:12:32;15.00;;;12.32;;
15194;SDS011;7698;42.478;23.756;2022-12-18T10:15:10;13.82;;;11.63;;
15194;SDS011;7698;42.478;23.756;2022-12-18T10:17:43;10.98;;;9.88;;
15194;SDS011;7698;42.478;23.756;2022-12-18T10:20:16;13.60;;;12.00;;
15194;SDS011;7698;42.478;23.756;2022-12-18T10:22:52;12.45;;;11.20;;
15194;SDS011;7698;42.478;23.756;2022-12-18T10:25:26;13.35;;;11.95;;
15194;SDS011;7698;42.478;23.756;2022-12-18T10:28:00;13.50;;;11.73;;
15194;SDS011;7698;42.478;23.756;2022-12-18T10:30:35;12.95;;;11.63;;
15194;SDS011;7698;42.478;23.756;2022-12-18T10:33:01;12.45;;;11.05;;
15194;SDS011;7698;42.478;23.756;2022-12-18T10:35:29;13.30;;;11.90;;
15194;SDS011;7698;42.478;23.756;2022-12-18T10:37:59;13.20;;;11.50;;
15194;SDS011;7698;42.478;23.756;2022-12-18T10:40:29;15.02;;;12.65;;
15194;SDS011;7698;42.478;23.756;2022-12-18T10:43:09;12.95;;;11.57;;
15194;SDS011;7698;42.478;23.756;2022-12-18T10:45:39;13.95;;;12.40;;
15194;SDS011;7698;42.478;23.756;2022-12-18T10:48:17;14.23;;;11.18;;
15194;SDS011;7698;42.478;23.756;2022-12-18T10:50:46;13.93;;;11.25;;
15194;SDS011;7698;42.478;23.756;2022-12-18T10:53:18;13.82;;;12.43;;
15194;SDS011;7698;42.478;23.756;2022-12-18T10:55:48;12.85;;;11.50;;
15194;SDS011;7698;42.478;23.756;2022-12-18T10:58:16;13.90;;;11.75;;
15194;SDS011;7698;42.478;23.756;2022-12-18T11:01:01;12.88;;;11.57;;
15194;SDS011;7698;42.478;23.756;2022-12-18T11:03:32;12.77;;;11.02;;
15194;SDS011;7698;42.478;23.756;2022-12-18T11:06:02;13.45;;;12.13;;
15194;SDS011;7698;42.478;23.756;2022-12-18T11:08:31;11.02;;;9.85;;
15194;SDS011;7698;42.478;23.756;2022-12-18T11:11:00;13.73;;;11.82;;
15194;SDS011;7698;42.478;23.756;2022-12-18T11:13:27;13.30;;;11.18;;
15194;SDS011;7698;42.478;23.756;2022-12-18T11:15:56;12.90;;;10.82;;
15194;SDS011;7698;42.478;23.756;2022-12-18T11:18:25;14.77;;;12.18;;
15194;SDS011;7698;42.478;23.756;2022-12-18T11:20:54;13.50;;;11.38;;
15194;SDS011;7698;42.478;23.756;2022-12-18T11:23:23;12.43;;;11.00;;
15194;SDS011;7698;42.478;23.756;2022-12-18T11:25:52;14.30;;;12.10;;
15194;SDS011;7698;42.478;23.756;2022-12-18T11:28:33;14.48;;;12.60;;
15194;SDS011;7698;42.478;23.756;2022-12-18T11:31:16;15.95;;;12.32;;
15194;SDS011;7698;42.478;23.756;2022-12-18T11:33:51;18.00;;;15.20;;
15194;SDS011;7698;42.478;23.756;2022-12-18T11:36:28;15.27;;;13.43;;
15194;SDS011;7698;42.478;23.756;2022-12-18T11:38:59;15.10;;;12.82;;
15194;SDS011;7698;42.478;23.756;2022-12-18T11:41:33;16.40;;;13.57;;
15194;SDS011;7698;42.478;23.756;2022-12-18T11:44:38;13.95;;;12.45;;
15194;SDS011;7698;42.478;23.756;2022-12-18T11:47:13;14.70;;;13.15;;
15194;SDS011;7698;42.478;23.756;2022-12-18T11:49:48;15.57;;;12.93;;
15194;SDS011;7698;42.478;23.756;2022-12-18T11:52:16;12.43;;;11.00;;
15194;SDS011;7698;42.478;23.756;2022-12-18T11:54:47;13.27;;;11.57;;
15194;SDS011;7698;42.478;23.756;2022-12-18T11:57:20;14.73;;;11.27;;
15194;SDS011;7698;42.478;23.756;2022-12-18T11:59:59;14.90;;;12.55;;
15194;SDS011;7698;42.478;23.756;2022-12-18T12:05:47;15.20;;;12.68;;
15194;SDS011;7698;42.478;23.756;2022-12-18T12:08:26;13.30;;;11.85;;
15194;SDS011;7698;42.478;23.756;2022-12-18T12:11:05;13.73;;;11.60;;
15194;SDS011;7698;42.478;23.756;2022-12-18T12:13:44;14.95;;;12.07;;
15194;SDS011;7698;42.478;23.756;2022-12-18T12:16:21;14.25;;;11.52;;
15194;SDS011;7698;42.478;23.756;2022-12-18T12:19:02;12.77;;;10.95;;
15194;SDS011;7698;42.478;23.756;2022-12-18T12:21:39;13.82;;;11.80;;
15194;SDS011;7698;42.478;23.756;2022-12-18T12:24:12;12.38;;;10.57;;
15194;SDS011;7698;42.478;23.756;2022-12-18T12:26:49;13.80;;;11.27;;
15194;SDS011;7698;42.478;23.756;2022-12-18T12:29:26;14.95;;;11.88;;
15194;SDS011;7698;42.478;23.756;2022-12-18T12:32:07;11.98;;;10.77;;
15194;SDS011;7698;42.478;23.756;2022-12-18T12:34:48;15.52;;;13.02;;
15194;SDS011;7698;42.478;23.756;2022-12-18T12:37:30;13.25;;;10.95;;
15194;SDS011;7698;42.478;23.756;2022-12-18T12:40:06;14.60;;;11.15;;
15194;SDS011;7698;42.478;23.756;2022-12-18T12:42:39;13.27;;;11.25;;
15194;SDS011;7698;42.478;23.756;2022-12-18T12:45:28;12.80;;;11.10;;
15194;SDS011;7698;42.478;23.756;2022-12-18T12:48:11;13.15;;;11.38;;
15194;SDS011;7698;42.478;23.756;2022-12-18T12:50:44;13.68;;;11.32;;
15194;SDS011;7698;42.478;23.756;2022-12-18T12:53:16;14.10;;;12.00;;
15194;SDS011;7698;42.478;23.756;2022-12-18T12:55:49;12.15;;;10.05;;
15194;SDS011;7698;42.478;23.756;2022-12-18T12:58:19;13.50;;;11.23;;
15194;SDS011;7698;42.478;23.756;2022-12-18T13:01:01;13.10;;;10.27;;
15194;SDS011;7698;42.478;23.756;2022-12-18T13:03:41;12.18;;;10.88;;
15194;SDS011;7698;42.478;23.756;2022-12-18T13:06:14;15.60;;;12.30;;
15194;SDS011;7698;42.478;23.756;2022-12-18T13:08:54;11.27;;;10.07;;
15194;SDS011;7698;42.478;23.756;2022-12-18T13:11:30;10.40;;;9.13;;
15194;SDS011;7698;42.478;23.756;2022-12-18T13:14:26;11.35;;;10.15;;
15194;SDS011;7698;42.478;23.756;2022-12-18T13:17:20;13.70;;;10.68;;
15194;SDS011;7698;42.478;23.756;2022-12-18T13:20:04;12.70;;;9.95;;
15194;SDS011;7698;42.478;23.756;2022-12-18T13:22:37;11.45;;;9.30;;
15194;SDS011;7698;42.478;23.756;2022-12-18T13:28:01;10.85;;;9.07;;
15194;SDS011;7698;42.478;23.756;2022-12-18T13:30:47;11.02;;;9.60;;
15194;SDS011;7698;42.478;23.756;2022-12-18T13:33:38;10.85;;;9.57;;
15194;SDS011;7698;42.478;23.756;2022-12-18T13:36:12;12.13;;;10.20;;
15194;SDS011;7698;42.478;23.756;2022-12-18T13:38:41;12.43;;;10.05;;
15194;SDS011;7698;42.478;23.756;2022-12-18T13:41:22;12.48;;;10.50;;
15194;SDS011;7698;42.478;23.756;2022-12-18T13:43:51;14.93;;;12.05;;
15194;SDS011;7698;42.478;23.756;2022-12-18T13:46:20;11.23;;;10.02;;
15194;SDS011;7698;42.478;23.756;2022-12-18T13:48:49;12.02;;;9.73;;
15194;SDS011;7698;42.478;23.756;2022-12-18T13:51:20;11.68;;;10.45;;
15194;SDS011;7698;42.478;23.756;2022-12-18T13:53:50;9.98;;;8.98;;
15194;SDS011;7698;42.478;23.756;2022-12-18T13:56:18;11.07;;;9.73;;
15194;SDS011;7698;42.478;23.756;2022-12-18T13:59:03;12.05;;;9.32;;
15194;SDS011;7698;42.478;23.756;2022-12-18T14:01:33;12.93;;;10.15;;
15194;SDS011;7698;42.478;23.756;2022-12-18T14:04:09;11.35;;;9.60;;
15194;SDS011;7698;42.478;23.756;2022-12-18T14:06:41;12.30;;;10.73;;
15194;SDS011;7698;42.478;23.756;2022-12-18T14:09:10;10.90;;;9.52;;
15194;SDS011;7698;42.478;23.756;2022-12-18T14:11:41;13.38;;;10.27;;
15194;SDS011;7698;42.478;23.756;2022-12-18T14:14:13;11.88;;;10.38;;
15194;SDS011;7698;42.478;23.756;2022-12-18T14:16:41;13.40;;;10.13;;
15194;SDS011;7698;42.478;23.756;2022-12-18T14:19:10;11.80;;;9.25;;
15194;SDS011;7698;42.478;23.756;2022-12-18T14:21:39;12.95;;;10.30;;
15194;SDS011;7698;42.478;23.756;2022-12-18T14:24:13;13.40;;;10.68;;
15194;SDS011;7698;42.478;23.756;2022-12-18T14:26:41;13.77;;;11.52;;
15194;SDS011;7698;42.478;23.756;2022-12-18T14:29:18;13.57;;;11.90;;
15194;SDS011;7698;42.478;23.756;2022-12-18T14:34:33;12.30;;;10.50;;
15194;SDS011;7698;42.478;23.756;2022-12-18T14:37:01;12.48;;;10.27;;
15194;SDS011;7698;42.478;23.756;2022-12-18T14:39:28;13.73;;;12.07;;
15194;SDS011;7698;42.478;23.756;2022-12-18T14:41:55;13.30;;;10.77;;
15194;SDS011;7698;42.478;23.756;2022-12-18T14:44:22;12.88;;;10.98;;
15194;SDS011;7698;42.478;23.756;2022-12-18T14:46:49;13.60;;;11.32;;
15194;SDS011;7698;42.478;23.756;2022-12-18T14:49:21;16.48;;;12.45;;
15194;SDS011;7698;42.478;23.756;2022-12-18T14:51:51;12.80;;;11.23;;
15194;SDS011;7698;42.478;23.756;2022-12-18T14:54:22;14.68;;;12.50;;
15194;SDS011;7698;42.478;23.756;2022-12-18T14:56:50;14.35;;;11.50;;
15194;SDS011;7698;42.478;23.756;2022-12-18T14:59:21;12.40;;;10.90;;
15194;SDS011;7698;42.478;23.756;2022-12-18T15:02:01;14.30;;;11.65;;
15194;SDS011;7698;42.478;23.756;2022-12-18T15:04:32;15.13;;;13.23;;
15194;SDS011;7698;42.478;23.756;2022-12-18T15:07:02;16.85;;;13.30;;